createdAt,value
2017-06-20T12:12:36.367Z,26
2017-06-20T12:12:53.644Z,26.1
2017-06-20T12:13:55.301Z,26.2
2017-06-20T12:14:56.959Z,26.3
2017-06-20T12:15:58.595Z,26.4
2017-06-20T12:17:00.562Z,26.4
2017-06-20T12:17:41.295Z,26.4
2017-06-20T12:17:49.243Z,26.4
2017-06-20T12:18:50.895Z,26.4
2017-06-20T12:19:52.526Z,26.4
2017-06-20T12:20:54.154Z,26.4
2017-06-20T12:21:55.782Z,26.3
2017-06-20T12:22:57.804Z,26.3
2017-06-20T12:23:59.773Z,26.3
2017-06-20T12:25:01.743Z,26.3
2017-06-20T12:26:03.354Z,26.3
2017-06-20T12:27:04.985Z,26.3
2017-06-20T12:28:06.606Z,26.2
2017-06-20T12:29:08.342Z,26.3
2017-06-20T12:29:55.906Z,26.3
2017-06-20T12:30:04.810Z,26.3
2017-06-20T12:30:26.697Z,26.3
2017-06-20T12:30:50.185Z,26.3
2017-06-20T13:00:06.807Z,26.4
2017-06-20T13:00:12.517Z,26.7
2017-06-20T13:01:14.637Z,26.7
2017-06-20T13:02:17.058Z,26.7
2017-06-20T13:03:19.066Z,26.7
2017-06-20T13:04:21.076Z,26.7
2017-06-20T13:05:17.903Z,26.7
2017-06-20T13:06:19.931Z,26.7
2017-06-20T13:06:43.659Z,26.7
2017-06-20T13:07:45.796Z,26.7
2017-06-20T13:07:56.568Z,26.7
2017-06-20T13:08:58.946Z,26.7
2017-06-20T13:10:00.954Z,26.7
2017-06-20T13:11:03.030Z,26.7
2017-06-20T13:23:22.342Z,26.7
2017-06-20T13:24:18.118Z,26.8
2017-06-20T13:25:20.174Z,26.8
2017-06-20T13:26:22.227Z,26.8
2017-06-20T13:27:24.246Z,26.8
2017-06-20T13:28:26.405Z,26.8
2017-06-20T13:29:28.437Z,26.8
2017-06-20T13:30:30.445Z,26.8
2017-06-20T13:31:32.910Z,26.8
2017-06-20T13:32:34.942Z,26.8
2017-06-20T13:33:36.947Z,26.8
2017-06-20T13:40:49.933Z,26.8
2017-06-20T13:40:56.126Z,26.8
2017-06-20T13:41:58.685Z,26.8
2017-06-20T13:43:01.168Z,26.8
2017-06-20T13:44:18.239Z,26.8
2017-06-20T13:45:20.267Z,26.8
2017-06-20T13:46:22.280Z,26.9
2017-06-20T13:47:24.324Z,26.9
2017-06-20T13:48:26.342Z,26.9
2017-06-20T13:49:28.437Z,26.9
2017-06-20T13:50:30.894Z,26.9
2017-06-20T13:51:33.291Z,26.9
2017-06-20T13:52:35.317Z,26.9
2017-06-20T13:53:37.320Z,26.9
2017-06-20T13:54:39.375Z,26.9
2017-06-20T13:55:41.391Z,26.9
2017-06-20T13:56:43.815Z,26.8
2017-06-20T13:57:45.966Z,26.9
2017-06-20T13:58:47.978Z,26.9
2017-06-20T13:59:50.083Z,26.9
2017-06-20T14:00:52.091Z,26.9
2017-06-20T14:01:54.083Z,26.9
2017-06-20T14:02:56.118Z,26.9
2017-06-20T14:03:03.655Z,26.9
2017-06-20T14:03:55.561Z,26.9
2017-06-20T14:04:57.587Z,26.9
2017-06-20T14:05:59.596Z,26.9
2017-06-20T14:07:01.612Z,26.9
2017-06-20T14:08:03.675Z,27
2017-06-20T14:09:05.729Z,26.9
2017-06-20T14:10:07.754Z,27
2017-06-20T14:11:09.869Z,27
2017-06-20T14:12:12.094Z,27
2017-06-20T14:13:14.431Z,27
2017-06-20T14:14:16.453Z,27
2017-06-20T14:15:18.465Z,27
2017-06-20T14:16:20.496Z,27
2017-06-20T14:17:22.533Z,27
2017-06-20T14:18:24.551Z,27
2017-06-20T14:19:26.923Z,27
2017-06-20T14:20:28.941Z,27
2017-06-20T14:21:31.630Z,27
2017-06-20T14:22:33.663Z,27
2017-06-20T14:23:36.015Z,27
2017-06-20T14:24:38.030Z,27
2017-06-20T14:25:40.085Z,27
2017-06-20T14:26:42.114Z,27
2017-06-20T14:27:44.143Z,27
2017-06-20T14:28:46.150Z,27
2017-06-20T14:29:48.625Z,27
2017-06-20T14:30:50.660Z,27
2017-06-20T14:31:52.663Z,27
2017-06-20T14:32:54.683Z,27
2017-06-20T14:33:56.699Z,27
2017-06-20T14:34:58.743Z,27
2017-06-20T14:36:00.752Z,26.9
2017-06-20T14:37:03.107Z,26.9
2017-06-20T14:38:05.630Z,26.9
2017-06-20T14:39:07.646Z,26.9
2017-06-20T14:40:09.648Z,26.9
2017-06-20T14:41:11.673Z,26.9
2017-06-20T14:42:13.690Z,26.9
2017-06-20T14:43:15.719Z,26.9
2017-06-20T14:44:17.736Z,26.9
2017-06-20T16:24:16.953Z,25.1
2017-06-20T16:25:02.950Z,25.1
2017-06-20T16:25:22.178Z,25.1
2017-06-20T16:26:24.196Z,25.1
2017-06-20T16:27:26.400Z,25.3
2017-06-20T16:28:29.594Z,25.3
2017-06-20T16:29:32.094Z,25.4
2017-06-20T16:30:34.115Z,25.5
2017-06-20T16:31:20.128Z,25.6
2017-06-20T16:31:25.620Z,25.7
2017-06-20T16:32:27.662Z,25.7
2017-06-20T16:33:29.705Z,25.8
2017-06-20T16:34:07.013Z,26
2017-06-20T16:34:25.049Z,26
2017-06-20T16:35:27.102Z,26
2017-06-20T16:36:29.134Z,26.2
2017-06-20T16:37:31.182Z,26.3
2017-06-20T16:38:33.548Z,26.4
2017-06-20T16:39:31.733Z,26.5
2017-06-20T16:40:33.774Z,26.7
2017-06-20T16:40:51.117Z,26.7
2017-06-20T16:41:14.880Z,26.8
2017-06-20T16:42:17.032Z,26.8
2017-06-20T16:43:19.570Z,26.9
2017-06-20T16:44:21.614Z,27
2017-06-20T16:45:23.649Z,27.1
2017-06-20T16:46:25.689Z,27.2
2017-06-20T16:47:27.731Z,27.2
2017-06-20T16:48:29.769Z,27.3
2017-06-20T21:38:34.684Z,27.3
2017-06-20T21:38:55.027Z,27.2
2017-06-20T21:39:57.308Z,27.1
2017-06-20T21:40:59.402Z,27
2017-06-20T21:42:01.507Z,26.9
2017-06-20T21:43:03.605Z,26.9
2017-06-20T21:44:05.701Z,26.8
2017-06-20T21:45:07.789Z,26.8
2017-06-20T21:45:36.491Z,26.7
2017-06-20T21:45:59.537Z,26.7
2017-06-20T21:46:25.263Z,26.7
2017-06-20T21:47:31.035Z,26.7
2017-06-20T21:48:18.427Z,26.5
2017-06-20T21:48:52.942Z,26.5
2017-06-20T21:49:55.000Z,26.5
2017-06-20T21:50:51.194Z,26.4
2017-06-20T21:50:58.702Z,26.4
2017-06-20T21:52:00.764Z,26.4
2017-06-20T21:53:08.151Z,26.3
2017-06-20T21:54:04.166Z,26.2
2017-06-20T21:54:24.103Z,26.2
2017-06-20T21:55:26.158Z,26.2
2017-06-20T21:55:51.850Z,26.2
2017-06-20T21:56:59.518Z,26.1
2017-06-20T21:58:06.781Z,26.1
2017-06-20T21:59:08.903Z,26.1
2017-06-20T22:00:10.969Z,26
2017-06-20T22:01:13.044Z,26
2017-06-20T22:02:15.443Z,26
2017-06-20T22:03:19.043Z,26
2017-06-20T22:04:24.739Z,26
2017-06-20T22:05:31.309Z,26
2017-06-20T22:06:35.589Z,26
2017-06-20T22:07:38.631Z,26
2017-06-20T22:08:40.665Z,26
2017-06-20T22:09:43.412Z,25.9
2017-06-20T22:10:45.459Z,26
2017-06-20T22:11:47.514Z,25.9
2017-06-20T22:12:50.028Z,26
2017-06-20T22:13:52.070Z,25.9
2017-06-20T22:14:54.480Z,26
2017-06-20T22:15:57.057Z,26
2017-06-20T22:16:59.141Z,26
2017-06-20T22:18:01.186Z,26
2017-06-20T22:19:03.255Z,26
2017-06-20T22:20:05.350Z,26
2017-06-20T22:21:07.423Z,26
2017-06-20T22:22:09.477Z,26
2017-06-20T22:23:11.996Z,26
2017-06-20T22:24:14.048Z,26
2017-06-20T22:25:16.098Z,26
2017-06-20T22:26:18.151Z,26
2017-06-20T22:27:20.213Z,26
2017-06-20T22:28:22.281Z,26.1
2017-06-20T22:29:24.337Z,26.1
2017-06-20T22:30:26.400Z,26.1
2017-06-20T22:31:28.444Z,26.1
2017-06-20T22:32:30.707Z,26.1
2017-06-20T22:33:32.776Z,26.1
2017-06-20T22:34:34.840Z,26.1
2017-06-20T22:35:36.917Z,26
2017-06-20T22:36:39.005Z,26
2017-06-20T22:37:41.251Z,26.1
2017-06-20T22:38:43.644Z,26
2017-06-20T22:39:45.700Z,26.1
2017-06-20T22:40:47.761Z,26.1
2017-06-20T22:41:49.807Z,26.1
2017-06-20T22:42:51.849Z,26.1
2017-06-20T22:43:53.935Z,26.1
2017-06-20T22:44:55.990Z,26.1
2017-06-20T22:45:58.043Z,26.1
2017-06-20T22:47:00.126Z,26.1
2017-06-20T22:48:02.165Z,26.2
2017-06-20T22:49:04.231Z,26.1
2017-06-20T22:50:06.287Z,26.2
2017-06-20T22:51:08.383Z,26.2
2017-06-20T22:52:10.735Z,26.1
2017-06-20T22:53:12.991Z,26.1
2017-06-20T22:54:15.435Z,26.2
2017-06-20T22:55:17.489Z,26.2
2017-06-20T22:56:19.532Z,26.2
2017-06-20T22:57:21.607Z,26.2
2017-06-20T22:58:23.647Z,26.2
2017-06-20T22:59:25.709Z,26.2
2017-06-20T23:00:28.098Z,26.2
2017-06-20T23:01:30.166Z,26.2
2017-06-20T23:02:32.344Z,26.2
2017-06-20T23:03:34.576Z,26.2
2017-06-20T23:04:36.634Z,26.2
2017-06-20T23:05:38.693Z,26.2
2017-06-20T23:06:40.754Z,26.2
2017-06-20T23:07:43.145Z,26.2
2017-06-20T23:08:45.195Z,26.2
2017-06-20T23:09:47.247Z,26.2
2017-06-20T23:10:49.314Z,26.2
2017-06-20T23:11:51.389Z,26.1
2017-06-20T23:12:53.602Z,26.1
2017-06-20T23:13:55.657Z,26.1
2017-06-20T23:14:58.046Z,26.1
2017-06-20T23:16:00.091Z,26.1
2017-06-20T23:17:02.130Z,26.1
2017-06-20T23:18:04.170Z,26.1
2017-06-20T23:19:06.552Z,26.1
2017-06-20T23:20:08.619Z,26.1
2017-06-20T23:21:10.669Z,26.1
2017-06-20T23:22:13.231Z,26
2017-06-20T23:23:15.645Z,26
2017-06-20T23:24:17.897Z,26
2017-06-20T23:25:20.287Z,26
2017-06-20T23:26:22.672Z,26
2017-06-20T23:27:24.952Z,26
2017-06-20T23:28:27.003Z,26
2017-06-20T23:29:29.025Z,26
2017-06-20T23:30:31.096Z,26
2017-06-20T23:31:33.497Z,25.9
2017-06-20T23:32:35.547Z,26
2017-06-20T23:33:37.596Z,25.9
2017-06-20T23:34:39.641Z,25.9
2017-06-20T23:35:41.778Z,25.9
2017-06-20T23:36:44.145Z,25.9
2017-06-20T23:37:46.198Z,25.9
2017-06-20T23:38:48.576Z,25.9
2017-06-20T23:39:50.624Z,25.9
2017-06-20T23:40:52.661Z,25.9
2017-06-20T23:41:54.859Z,25.9
2017-06-20T23:42:56.893Z,25.9
2017-06-20T23:43:59.473Z,25.8
2017-06-20T23:45:01.529Z,25.8
2017-06-20T23:46:03.628Z,25.8
2017-06-20T23:47:05.686Z,25.8
2017-06-20T23:48:07.742Z,25.8
2017-06-20T23:49:09.800Z,25.8
2017-06-20T23:50:12.185Z,25.8
2017-06-20T23:51:14.243Z,25.8
2017-06-20T23:52:16.312Z,25.8
2017-06-20T23:53:18.358Z,25.8
2017-06-20T23:54:20.743Z,25.8
2017-06-20T23:55:22.813Z,25.8
2017-06-20T23:56:24.865Z,25.8
2017-06-20T23:57:26.920Z,25.8
2017-06-20T23:58:29.136Z,25.8
2017-06-20T23:59:31.748Z,25.7
